sensor_id;sensor_type;location;lat;lon;timestamp;temperature;humidity
77207;DHT22;66190;50.708;7.906;2023-03-01T00:02:20;-1.90;99.90
77207;DHT22;66190;50.708;7.906;2023-03-01T00:04:46;-2.00;99.90
77207;DHT22;66190;50.708;7.906;2023-03-01T00:07:12;-2.10;99.90
77207;DHT22;66190;50.708;7.906;2023-03-01T00:09:38;-2.10;99.90
77207;DHT22;66190;50.708;7.906;2023-03-01T00:12:05;-2.00;99.90
77207;DHT22;66190;50.708;7.906;2023-03-01T00:14:31;-2.00;99.90
77207;DHT22;66190;50.708;7.906;2023-03-01T00:16:56;-1.90;99.90
77207;DHT22;66190;50.708;7.906;2023-03-01T00:19:22;-1.90;99.90
77207;DHT22;66190;50.708;7.906;2023-03-01T00:21:48;-2.00;99.90
77207;DHT22;66190;50.708;7.906;2023-03-01T00:24:14;-2.00;99.90
77207;DHT22;66190;50.708;7.906;2023-03-01T00:26:40;-2.00;99.90
77207;DHT22;66190;50.708;7.906;2023-03-01T00:29:06;-2.00;99.90
77207;DHT22;66190;50.708;7.906;2023-03-01T00:31:33;-1.90;99.90
77207;DHT22;66190;50.708;7.906;2023-03-01T00:34:01;-2.00;99.90
77207;DHT22;66190;50.708;7.906;2023-03-01T00:36:33;-2.00;99.90
77207;DHT22;66190;50.708;7.906;2023-03-01T00:38:59;-2.00;99.90
77207;DHT22;66190;50.708;7.906;2023-03-01T00:41:25;-2.00;99.90
77207;DHT22;66190;50.708;7.906;2023-03-01T00:43:52;-2.00;99.90
77207;DHT22;66190;50.708;7.906;2023-03-01T00:46:20;-2.10;99.90
77207;DHT22;66190;50.708;7.906;2023-03-01T00:48:46;-2.10;99.90
77207;DHT22;66190;50.708;7.906;2023-03-01T00:51:21;-2.10;99.90
77207;DHT22;66190;50.708;7.906;2023-03-01T00:53:47;-2.10;99.90
77207;DHT22;66190;50.708;7.906;2023-03-01T00:56:15;-2.10;99.90
77207;DHT22;66190;50.708;7.906;2023-03-01T00:58:40;-2.10;99.90
77207;DHT22;66190;50.708;7.906;2023-03-01T01:01:15;-2.10;99.90
77207;DHT22;66190;50.708;7.906;2023-03-01T01:06:19;-2.20;99.90
77207;DHT22;66190;50.708;7.906;2023-03-01T01:08:45;-2.20;99.90
77207;DHT22;66190;50.708;7.906;2023-03-01T01:11:11;-2.20;99.90
77207;DHT22;66190;50.708;7.906;2023-03-01T01:13:38;-2.30;99.90
77207;DHT22;66190;50.708;7.906;2023-03-01T01:16:04;-2.30;99.90
77207;DHT22;66190;50.708;7.906;2023-03-01T01:18:30;-2.40;99.90
77207;DHT22;66190;50.708;7.906;2023-03-01T01:20:56;-2.40;99.90
77207;DHT22;66190;50.708;7.906;2023-03-01T01:23:22;-2.40;99.90
77207;DHT22;66190;50.708;7.906;2023-03-01T01:25:47;-2.40;99.90
77207;DHT22;66190;50.708;7.906;2023-03-01T01:28:13;-2.40;99.90
77207;DHT22;66190;50.708;7.906;2023-03-01T01:30:38;-2.50;99.90
77207;DHT22;66190;50.708;7.906;2023-03-01T01:33:04;-2.60;99.90
77207;DHT22;66190;50.708;7.906;2023-03-01T01:35:30;-2.60;99.90
77207;DHT22;66190;50.708;7.906;2023-03-01T01:37:55;-2.70;99.90
77207;DHT22;66190;50.708;7.906;2023-03-01T01:40:21;-2.70;99.90
77207;DHT22;66190;50.708;7.906;2023-03-01T01:42:46;-2.60;99.90
77207;DHT22;66190;50.708;7.906;2023-03-01T01:45:33;-2.60;99.90
77207;DHT22;66190;50.708;7.906;2023-03-01T01:48:06;-2.60;99.90
77207;DHT22;66190;50.708;7.906;2023-03-01T01:50:35;-2.60;99.90
77207;DHT22;66190;50.708;7.906;2023-03-01T01:53:14;-2.50;99.90
77207;DHT22;66190;50.708;7.906;2023-03-01T01:55:49;-2.50;99.90
77207;DHT22;66190;50.708;7.906;2023-03-01T01:58:19;-2.50;99.90
77207;DHT22;66190;50.708;7.906;2023-03-01T02:00:46;-2.60;99.90
77207;DHT22;66190;50.708;7.906;2023-03-01T02:03:15;-2.50;99.90
77207;DHT22;66190;50.708;7.906;2023-03-01T02:05:55;-2.60;99.90
77207;DHT22;66190;50.708;7.906;2023-03-01T02:08:26;-2.50;99.90
77207;DHT22;66190;50.708;7.906;2023-03-01T02:10:52;-2.50;99.90
77207;DHT22;66190;50.708;7.906;2023-03-01T02:13:20;-2.50;99.90
77207;DHT22;66190;50.708;7.906;2023-03-01T02:15:45;-2.50;99.90
77207;DHT22;66190;50.708;7.906;2023-03-01T02:18:14;-2.50;99.90
77207;DHT22;66190;50.708;7.906;2023-03-01T02:20:50;-2.50;99.90
77207;DHT22;66190;50.708;7.906;2023-03-01T02:23:17;-2.50;99.90
77207;DHT22;66190;50.708;7.906;2023-03-01T02:25:54;-2.50;99.90
77207;DHT22;66190;50.708;7.906;2023-03-01T02:28:32;-2.50;99.90
77207;DHT22;66190;50.708;7.906;2023-03-01T02:30:58;-2.60;99.90
77207;DHT22;66190;50.708;7.906;2023-03-01T02:33:44;-2.60;99.90
77207;DHT22;66190;50.708;7.906;2023-03-01T02:36:15;-2.60;99.90
77207;DHT22;66190;50.708;7.906;2023-03-01T02:38:42;-2.60;99.90
77207;DHT22;66190;50.708;7.906;2023-03-01T02:41:11;-2.60;99.90
77207;DHT22;66190;50.708;7.906;2023-03-01T02:43:38;-2.60;99.90
77207;DHT22;66190;50.708;7.906;2023-03-01T02:46:19;-2.60;99.90
77207;DHT22;66190;50.708;7.906;2023-03-01T02:48:53;-2.70;99.90
77207;DHT22;66190;50.708;7.906;2023-03-01T02:51:23;-2.70;99.90
77207;DHT22;66190;50.708;7.906;2023-03-01T02:56:31;-2.70;99.90
77207;DHT22;66190;50.708;7.906;2023-03-01T02:58:57;-2.70;99.90
77207;DHT22;66190;50.708;7.906;2023-03-01T03:01:27;-2.70;99.90
77207;DHT22;66190;50.708;7.906;2023-03-01T03:04:03;-2.70;99.90
77207;DHT22;66190;50.708;7.906;2023-03-01T03:06:29;-2.80;99.90
77207;DHT22;66190;50.708;7.906;2023-03-01T03:08:55;-2.80;99.90
77207;DHT22;66190;50.708;7.906;2023-03-01T03:11:20;-2.90;99.90
77207;DHT22;66190;50.708;7.906;2023-03-01T03:13:46;-2.90;99.90
77207;DHT22;66190;50.708;7.906;2023-03-01T03:16:14;-3.00;99.90
77207;DHT22;66190;50.708;7.906;2023-03-01T03:18:40;-3.00;99.90
77207;DHT22;66190;50.708;7.906;2023-03-01T03:21:09;-3.10;99.90
77207;DHT22;66190;50.708;7.906;2023-03-01T03:23:38;-3.10;99.90
77207;DHT22;66190;50.708;7.906;2023-03-01T03:26:05;-3.10;99.90
77207;DHT22;66190;50.708;7.906;2023-03-01T03:28:32;-3.20;99.90
77207;DHT22;66190;50.708;7.906;2023-03-01T03:30:58;-3.20;99.90
77207;DHT22;66190;50.708;7.906;2023-03-01T03:33:24;-3.20;99.90
77207;DHT22;66190;50.708;7.906;2023-03-01T03:35:50;-3.20;99.90
77207;DHT22;66190;50.708;7.906;2023-03-01T03:38:18;-3.20;99.90
77207;DHT22;66190;50.708;7.906;2023-03-01T03:40:52;-3.10;99.90
77207;DHT22;66190;50.708;7.906;2023-03-01T03:43:26;-3.10;99.90
77207;DHT22;66190;50.708;7.906;2023-03-01T03:45:52;-3.20;99.90
77207;DHT22;66190;50.708;7.906;2023-03-01T03:48:19;-3.30;99.90
77207;DHT22;66190;50.708;7.906;2023-03-01T03:50:50;-3.20;99.90
77207;DHT22;66190;50.708;7.906;2023-03-01T03:53:16;-3.20;99.90
77207;DHT22;66190;50.708;7.906;2023-03-01T03:55:42;-3.10;99.90
77207;DHT22;66190;50.708;7.906;2023-03-01T03:58:10;-3.10;99.90
77207;DHT22;66190;50.708;7.906;2023-03-01T04:00:38;-3.10;99.90
77207;DHT22;66190;50.708;7.906;2023-03-01T04:03:04;-3.10;99.90
77207;DHT22;66190;50.708;7.906;2023-03-01T04:05:30;-3.10;99.90
77207;DHT22;66190;50.708;7.906;2023-03-01T04:07:56;-3.20;99.90
77207;DHT22;66190;50.708;7.906;2023-03-01T04:10:34;-3.30;99.90
77207;DHT22;66190;50.708;7.906;2023-03-01T04:13:00;-3.30;99.90
77207;DHT22;66190;50.708;7.906;2023-03-01T04:15:27;-3.30;99.90
77207;DHT22;66190;50.708;7.906;2023-03-01T04:17:54;-3.30;99.90
77207;DHT22;66190;50.708;7.906;2023-03-01T04:20:26;-3.40;99.90
77207;DHT22;66190;50.708;7.906;2023-03-01T04:23:00;-3.40;99.90
77207;DHT22;66190;50.708;7.906;2023-03-01T04:25:39;-3.40;99.90
77207;DHT22;66190;50.708;7.906;2023-03-01T04:28:06;-3.40;99.90
77207;DHT22;66190;50.708;7.906;2023-03-01T04:30:32;-3.50;99.90
77207;DHT22;66190;50.708;7.906;2023-03-01T04:33:03;-3.50;99.90
77207;DHT22;66190;50.708;7.906;2023-03-01T04:35:29;-3.50;99.90
77207;DHT22;66190;50.708;7.906;2023-03-01T04:37:55;-3.40;99.90
77207;DHT22;66190;50.708;7.906;2023-03-01T04:40:20;-3.40;99.90
77207;DHT22;66190;50.708;7.906;2023-03-01T04:42:46;-3.50;99.90
77207;DHT22;66190;50.708;7.906;2023-03-01T04:45:12;-3.40;99.90
77207;DHT22;66190;50.708;7.906;2023-03-01T04:47:42;-3.40;99.90
77207;DHT22;66190;50.708;7.906;2023-03-01T04:50:10;-3.40;99.90
77207;DHT22;66190;50.708;7.906;2023-03-01T04:52:37;-3.40;99.90
77207;DHT22;66190;50.708;7.906;2023-03-01T04:55:03;-3.50;99.90
77207;DHT22;66190;50.708;7.906;2023-03-01T04:57:29;-3.60;99.90
77207;DHT22;66190;50.708;7.906;2023-03-01T04:59:55;-3.80;99.90
77207;DHT22;66190;50.708;7.906;2023-03-01T05:02:21;-3.90;99.90
77207;DHT22;66190;50.708;7.906;2023-03-01T05:04:46;-3.90;99.90
77207;DHT22;66190;50.708;7.906;2023-03-01T05:07:12;-3.90;99.90
77207;DHT22;66190;50.708;7.906;2023-03-01T05:09:38;-3.80;99.90
77207;DHT22;66190;50.708;7.906;2023-03-01T05:12:04;-3.80;99.90
77207;DHT22;66190;50.708;7.906;2023-03-01T05:14:30;-3.80;99.90
77207;DHT22;66190;50.708;7.906;2023-03-01T05:16:56;-3.70;99.90
77207;DHT22;66190;50.708;7.906;2023-03-01T05:19:29;-3.70;99.90
77207;DHT22;66190;50.708;7.906;2023-03-01T05:21:56;-3.50;99.90
77207;DHT22;66190;50.708;7.906;2023-03-01T05:24:34;-3.50;99.90
77207;DHT22;66190;50.708;7.906;2023-03-01T05:27:00;-3.60;99.90
77207;DHT22;66190;50.708;7.906;2023-03-01T05:29:28;-3.70;99.90
77207;DHT22;66190;50.708;7.906;2023-03-01T05:31:56;-3.70;99.90
77207;DHT22;66190;50.708;7.906;2023-03-01T05:34:28;-3.70;99.90
77207;DHT22;66190;50.708;7.906;2023-03-01T05:36:55;-3.80;99.90
77207;DHT22;66190;50.708;7.906;2023-03-01T05:39:22;-3.70;99.90
77207;DHT22;66190;50.708;7.906;2023-03-01T05:41:52;-3.70;99.90
77207;DHT22;66190;50.708;7.906;2023-03-01T05:44:18;-3.60;99.90
77207;DHT22;66190;50.708;7.906;2023-03-01T05:46:43;-3.60;99.90
77207;DHT22;66190;50.708;7.906;2023-03-01T05:49:10;-3.60;99.90
77207;DHT22;66190;50.708;7.906;2023-03-01T05:51:36;-3.50;99.90
77207;DHT22;66190;50.708;7.906;2023-03-01T05:54:02;-3.40;99.90
77207;DHT22;66190;50.708;7.906;2023-03-01T05:56:27;-3.40;99.90
77207;DHT22;66190;50.708;7.906;2023-03-01T05:58:54;-3.40;99.90
77207;DHT22;66190;50.708;7.906;2023-03-01T06:01:20;-3.40;99.90
77207;DHT22;66190;50.708;7.906;2023-03-01T06:03:45;-3.40;99.90
77207;DHT22;66190;50.708;7.906;2023-03-01T06:06:11;-3.40;99.90
77207;DHT22;66190;50.708;7.906;2023-03-01T06:08:37;-3.30;99.90
77207;DHT22;66190;50.708;7.906;2023-03-01T06:11:03;-3.40;99.90
77207;DHT22;66190;50.708;7.906;2023-03-01T06:13:28;-3.40;99.90
77207;DHT22;66190;50.708;7.906;2023-03-01T06:15:55;-3.40;99.90
77207;DHT22;66190;50.708;7.906;2023-03-01T06:18:20;-3.30;99.90
77207;DHT22;66190;50.708;7.906;2023-03-01T06:20:55;-3.40;99.90
77207;DHT22;66190;50.708;7.906;2023-03-01T06:23:22;-3.30;99.90
77207;DHT22;66190;50.708;7.906;2023-03-01T06:25:48;-3.30;99.90
77207;DHT22;66190;50.708;7.906;2023-03-01T06:28:13;-3.30;99.90
77207;DHT22;66190;50.708;7.906;2023-03-01T06:30:39;-3.30;99.90
77207;DHT22;66190;50.708;7.906;2023-03-01T06:33:04;-3.30;99.90
77207;DHT22;66190;50.708;7.906;2023-03-01T06:35:30;-3.30;99.90
77207;DHT22;66190;50.708;7.906;2023-03-01T06:37:58;-3.30;99.90
77207;DHT22;66190;50.708;7.906;2023-03-01T06:40:24;-3.30;99.90
77207;DHT22;66190;50.708;7.906;2023-03-01T06:42:50;-3.20;99.90
77207;DHT22;66190;50.708;7.906;2023-03-01T06:45:18;-3.30;99.90
77207;DHT22;66190;50.708;7.906;2023-03-01T06:47:45;-3.30;99.90
77207;DHT22;66190;50.708;7.906;2023-03-01T06:50:11;-3.30;99.90
77207;DHT22;66190;50.708;7.906;2023-03-01T06:52:37;-3.30;99.90
77207;DHT22;66190;50.708;7.906;2023-03-01T06:55:04;-3.20;99.90
77207;DHT22;66190;50.708;7.906;2023-03-01T06:57:30;-3.20;99.90
77207;DHT22;66190;50.708;7.906;2023-03-01T06:59:55;-3.20;99.90
77207;DHT22;66190;50.708;7.906;2023-03-01T07:02:21;-3.20;99.90
77207;DHT22;66190;50.708;7.906;2023-03-01T07:04:49;-3.10;99.90
77207;DHT22;66190;50.708;7.906;2023-03-01T07:07:15;-3.20;99.90
77207;DHT22;66190;50.708;7.906;2023-03-01T07:09:40;-3.00;99.90
77207;DHT22;66190;50.708;7.906;2023-03-01T07:12:06;-2.90;99.90
77207;DHT22;66190;50.708;7.906;2023-03-01T07:14:32;-2.90;99.90
77207;DHT22;66190;50.708;7.906;2023-03-01T07:16:57;-2.80;99.90
77207;DHT22;66190;50.708;7.906;2023-03-01T07:19:23;-2.80;99.90
77207;DHT22;66190;50.708;7.906;2023-03-01T07:21:49;-2.70;99.90
77207;DHT22;66190;50.708;7.906;2023-03-01T07:24:14;-2.70;99.90
77207;DHT22;66190;50.708;7.906;2023-03-01T07:26:40;-2.60;99.90
77207;DHT22;66190;50.708;7.906;2023-03-01T07:29:07;-2.60;99.90
77207;DHT22;66190;50.708;7.906;2023-03-01T07:31:34;-2.60;99.90
77207;DHT22;66190;50.708;7.906;2023-03-01T07:34:00;-2.60;99.90
77207;DHT22;66190;50.708;7.906;2023-03-01T07:36:25;-2.50;99.90
77207;DHT22;66190;50.708;7.906;2023-03-01T07:38:51;-2.50;99.90
77207;DHT22;66190;50.708;7.906;2023-03-01T07:41:17;-2.40;99.90
77207;DHT22;66190;50.708;7.906;2023-03-01T07:43:43;-2.40;99.90
77207;DHT22;66190;50.708;7.906;2023-03-01T07:46:09;-2.40;99.90
77207;DHT22;66190;50.708;7.906;2023-03-01T07:48:34;-2.30;99.90
77207;DHT22;66190;50.708;7.906;2023-03-01T07:51:02;-2.20;99.90
77207;DHT22;66190;50.708;7.906;2023-03-01T07:53:29;-2.20;99.90
77207;DHT22;66190;50.708;7.906;2023-03-01T07:56:04;-2.10;99.90
77207;DHT22;66190;50.708;7.906;2023-03-01T07:58:30;-2.10;99.90
77207;DHT22;66190;50.708;7.906;2023-03-01T08:00:55;-2.10;99.90
77207;DHT22;66190;50.708;7.906;2023-03-01T08:03:21;-2.10;99.90
77207;DHT22;66190;50.708;7.906;2023-03-01T08:05:46;-2.10;99.90
77207;DHT22;66190;50.708;7.906;2023-03-01T08:08:12;-2.10;99.90
77207;DHT22;66190;50.708;7.906;2023-03-01T08:10:38;-1.90;99.90
77207;DHT22;66190;50.708;7.906;2023-03-01T08:13:04;-1.80;99.90
77207;DHT22;66190;50.708;7.906;2023-03-01T08:15:29;-1.70;99.90
77207;DHT22;66190;50.708;7.906;2023-03-01T08:17:55;-1.60;99.90
77207;DHT22;66190;50.708;7.906;2023-03-01T08:20:20;-1.50;99.90
77207;DHT22;66190;50.708;7.906;2023-03-01T08:22:46;-1.40;99.90
77207;DHT22;66190;50.708;7.906;2023-03-01T08:25:12;-1.30;99.90
77207;DHT22;66190;50.708;7.906;2023-03-01T08:27:39;-1.20;99.90
77207;DHT22;66190;50.708;7.906;2023-03-01T08:30:05;-1.20;99.90
77207;DHT22;66190;50.708;7.906;2023-03-01T08:32:35;-1.10;99.90
77207;DHT22;66190;50.708;7.906;2023-03-01T08:35:01;-1.00;99.90
77207;DHT22;66190;50.708;7.906;2023-03-01T08:37:27;-1.00;99.90
77207;DHT22;66190;50.708;7.906;2023-03-01T08:39:56;-0.80;99.90
77207;DHT22;66190;50.708;7.906;2023-03-01T08:42:21;-0.90;99.90
77207;DHT22;66190;50.708;7.906;2023-03-01T08:44:48;-0.80;99.90
77207;DHT22;66190;50.708;7.906;2023-03-01T08:47:14;-0.70;99.90
77207;DHT22;66190;50.708;7.906;2023-03-01T08:49:40;-0.70;99.90
77207;DHT22;66190;50.708;7.906;2023-03-01T08:52:06;-0.60;99.90
77207;DHT22;66190;50.708;7.906;2023-03-01T08:54:32;-0.50;99.90
77207;DHT22;66190;50.708;7.906;2023-03-01T08:56:57;-0.50;99.90
77207;DHT22;66190;50.708;7.906;2023-03-01T08:59:25;-0.50;99.90
77207;DHT22;66190;50.708;7.906;2023-03-01T09:01:52;-0.40;99.90
77207;DHT22;66190;50.708;7.906;2023-03-01T09:04:18;-0.30;99.90
77207;DHT22;66190;50.708;7.906;2023-03-01T09:06:45;-0.30;99.90
77207;DHT22;66190;50.708;7.906;2023-03-01T09:09:17;-0.20;99.70
77207;DHT22;66190;50.708;7.906;2023-03-01T09:11:44;-0.10;99.50
77207;DHT22;66190;50.708;7.906;2023-03-01T09:14:16;-0.10;99.70
77207;DHT22;66190;50.708;7.906;2023-03-01T09:16:42;-0.10;99.60
77207;DHT22;66190;50.708;7.906;2023-03-01T09:19:17;0.00;99.00
77207;DHT22;66190;50.708;7.906;2023-03-01T09:21:43;0.10;99.60
77207;DHT22;66190;50.708;7.906;2023-03-01T09:24:19;0.20;98.60
77207;DHT22;66190;50.708;7.906;2023-03-01T09:26:46;0.20;97.70
77207;DHT22;66190;50.708;7.906;2023-03-01T09:29:17;0.30;98.70
77207;DHT22;66190;50.708;7.906;2023-03-01T09:31:43;0.30;98.60
77207;DHT22;66190;50.708;7.906;2023-03-01T09:34:18;0.50;97.90
77207;DHT22;66190;50.708;7.906;2023-03-01T09:36:48;0.40;97.10
77207;DHT22;66190;50.708;7.906;2023-03-01T09:39:16;0.40;97.10
77207;DHT22;66190;50.708;7.906;2023-03-01T09:41:59;0.50;97.80
77207;DHT22;66190;50.708;7.906;2023-03-01T09:44:51;0.70;97.60
77207;DHT22;66190;50.708;7.906;2023-03-01T09:47:21;0.80;96.60
77207;DHT22;66190;50.708;7.906;2023-03-01T09:50:12;0.80;97.00
77207;DHT22;66190;50.708;7.906;2023-03-01T09:55:12;0.90;97.30
77207;DHT22;66190;50.708;7.906;2023-03-01T10:00:22;1.10;96.60
77207;DHT22;66190;50.708;7.906;2023-03-01T10:03:16;1.20;94.90
77207;DHT22;66190;50.708;7.906;2023-03-01T10:08:31;1.30;94.80
77207;DHT22;66190;50.708;7.906;2023-03-01T10:11:02;1.30;93.00
77207;DHT22;66190;50.708;7.906;2023-03-01T10:13:45;1.20;93.30
77207;DHT22;66190;50.708;7.906;2023-03-01T10:18:59;1.40;93.60
77207;DHT22;66190;50.708;7.906;2023-03-01T10:21:27;1.40;92.30
77207;DHT22;66190;50.708;7.906;2023-03-01T10:24:10;1.50;91.90
77207;DHT22;66190;50.708;7.906;2023-03-01T10:27:01;1.60;91.60
77207;DHT22;66190;50.708;7.906;2023-03-01T10:32:19;1.80;90.80
77207;DHT22;66190;50.708;7.906;2023-03-01T10:34:47;1.90;90.40
77207;DHT22;66190;50.708;7.906;2023-03-01T10:37:18;2.00;90.40
77207;DHT22;66190;50.708;7.906;2023-03-01T10:42:32;2.10;91.00
77207;DHT22;66190;50.708;7.906;2023-03-01T10:48:22;2.10;83.90
77207;DHT22;66190;50.708;7.906;2023-03-01T10:51:06;2.20;86.60
77207;DHT22;66190;50.708;7.906;2023-03-01T10:53:41;2.30;77.40
77207;DHT22;66190;50.708;7.906;2023-03-01T10:56:14;2.40;82.20
77207;DHT22;66190;50.708;7.906;2023-03-01T10:59:03;2.50;81.50
77207;DHT22;66190;50.708;7.906;2023-03-01T11:01:34;2.40;76.40
77207;DHT22;66190;50.708;7.906;2023-03-01T11:06:39;2.70;67.60
77207;DHT22;66190;50.708;7.906;2023-03-01T11:09:23;2.60;73.00
77207;DHT22;66190;50.708;7.906;2023-03-01T11:11:56;2.80;73.40
77207;DHT22;66190;50.708;7.906;2023-03-01T11:14:27;2.90;68.70
77207;DHT22;66190;50.708;7.906;2023-03-01T11:17:05;2.90;60.80
77207;DHT22;66190;50.708;7.906;2023-03-01T11:19:32;2.80;60.80
77207;DHT22;66190;50.708;7.906;2023-03-01T11:22:16;2.90;63.60
77207;DHT22;66190;50.708;7.906;2023-03-01T11:24:49;3.40;85.50
77207;DHT22;66190;50.708;7.906;2023-03-01T11:27:38;3.50;68.60
77207;DHT22;66190;50.708;7.906;2023-03-01T11:35:44;3.80;57.90
77207;DHT22;66190;50.708;7.906;2023-03-01T11:38:21;3.80;55.10
77207;DHT22;66190;50.708;7.906;2023-03-01T11:40:59;4.00;56.90
77207;DHT22;66190;50.708;7.906;2023-03-01T11:43:33;4.00;54.40
77207;DHT22;66190;50.708;7.906;2023-03-01T11:54:33;3.70;51.50
77207;DHT22;66190;50.708;7.906;2023-03-01T12:07:52;4.00;51.90
77207;DHT22;66190;50.708;7.906;2023-03-01T12:10:42;4.10;51.10
77207;DHT22;66190;50.708;7.906;2023-03-01T12:13:42;4.30;51.00
77207;DHT22;66190;50.708;7.906;2023-03-01T12:16:38;4.10;49.30
77207;DHT22;66190;50.708;7.906;2023-03-01T12:19:24;4.30;47.90
77207;DHT22;66190;50.708;7.906;2023-03-01T12:35:02;5.30;46.00
77207;DHT22;66190;50.708;7.906;2023-03-01T12:37:42;5.10;45.50
77207;DHT22;66190;50.708;7.906;2023-03-01T12:40:33;4.90;43.70
77207;DHT22;66190;50.708;7.906;2023-03-01T12:43:28;5.10;43.90
77207;DHT22;66190;50.708;7.906;2023-03-01T12:51:31;5.50;43.90
77207;DHT22;66190;50.708;7.906;2023-03-01T12:53:59;5.30;44.40
77207;DHT22;66190;50.708;7.906;2023-03-01T12:56:29;5.60;45.80
77207;DHT22;66190;50.708;7.906;2023-03-01T12:59:37;5.80;45.30
77207;DHT22;66190;50.708;7.906;2023-03-01T13:02:19;5.90;44.30
77207;DHT22;66190;50.708;7.906;2023-03-01T13:05:15;6.00;42.90
77207;DHT22;66190;50.708;7.906;2023-03-01T13:07:55;5.80;43.20
77207;DHT22;66190;50.708;7.906;2023-03-01T13:15:35;5.70;44.00
77207;DHT22;66190;50.708;7.906;2023-03-01T13:20:58;5.70;42.80
77207;DHT22;66190;50.708;7.906;2023-03-01T13:23:31;5.80;43.00
77207;DHT22;66190;50.708;7.906;2023-03-01T13:26:17;5.80;42.90
77207;DHT22;66190;50.708;7.906;2023-03-01T13:28:50;6.00;42.00
77207;DHT22;66190;50.708;7.906;2023-03-01T13:33:48;5.90;41.70
77207;DHT22;66190;50.708;7.906;2023-03-01T13:39:04;5.90;42.30
77207;DHT22;66190;50.708;7.906;2023-03-01T13:52:53;6.20;42.70
77207;DHT22;66190;50.708;7.906;2023-03-01T14:00:59;6.40;41.90
77207;DHT22;66190;50.708;7.906;2023-03-01T14:03:26;6.40;41.80
77207;DHT22;66190;50.708;7.906;2023-03-01T14:06:07;6.40;42.70
77207;DHT22;66190;50.708;7.906;2023-03-01T14:08:35;6.50;42.50
77207;DHT22;66190;50.708;7.906;2023-03-01T14:20:02;6.70;40.40
77207;DHT22;66190;50.708;7.906;2023-03-01T14:22:34;6.60;40.20
77207;DHT22;66190;50.708;7.906;2023-03-01T14:25:03;6.60;40.00
77207;DHT22;66190;50.708;7.906;2023-03-01T14:27:39;6.60;39.10
77207;DHT22;66190;50.708;7.906;2023-03-01T14:32:38;6.80;39.80
77207;DHT22;66190;50.708;7.906;2023-03-01T14:35:23;6.80;40.30
77207;DHT22;66190;50.708;7.906;2023-03-01T14:37:50;7.00;41.90
77207;DHT22;66190;50.708;7.906;2023-03-01T14:40:39;7.10;40.50
77207;DHT22;66190;50.708;7.906;2023-03-01T14:43:11;7.00;40.30
77207;DHT22;66190;50.708;7.906;2023-03-01T14:45:37;7.00;41.00
77207;DHT22;66190;50.708;7.906;2023-03-01T14:48:04;6.90;40.90
77207;DHT22;66190;50.708;7.906;2023-03-01T14:50:36;6.70;40.50
77207;DHT22;66190;50.708;7.906;2023-03-01T14:53:06;6.80;41.80
77207;DHT22;66190;50.708;7.906;2023-03-01T14:55:41;6.80;41.50
77207;DHT22;66190;50.708;7.906;2023-03-01T14:58:14;6.60;41.50
77207;DHT22;66190;50.708;7.906;2023-03-01T15:00:53;6.60;40.30
77207;DHT22;66190;50.708;7.906;2023-03-01T15:03:27;6.70;41.00
77207;DHT22;66190;50.708;7.906;2023-03-01T15:05:53;6.70;40.40
77207;DHT22;66190;50.708;7.906;2023-03-01T15:08:22;6.80;40.90
77207;DHT22;66190;50.708;7.906;2023-03-01T15:13:40;6.80;41.10
77207;DHT22;66190;50.708;7.906;2023-03-01T15:16:12;6.80;41.00
77207;DHT22;66190;50.708;7.906;2023-03-01T15:18:54;6.80;41.40
77207;DHT22;66190;50.708;7.906;2023-03-01T15:21:31;6.80;40.80
77207;DHT22;66190;50.708;7.906;2023-03-01T15:26:58;6.40;40.90
77207;DHT22;66190;50.708;7.906;2023-03-01T15:29:29;6.30;41.60
77207;DHT22;66190;50.708;7.906;2023-03-01T15:32:04;6.20;42.80
77207;DHT22;66190;50.708;7.906;2023-03-01T15:34:38;6.10;42.70
77207;DHT22;66190;50.708;7.906;2023-03-01T15:37:06;6.20;43.20
77207;DHT22;66190;50.708;7.906;2023-03-01T15:39:41;5.90;43.60
77207;DHT22;66190;50.708;7.906;2023-03-01T15:45:21;5.70;45.10
77207;DHT22;66190;50.708;7.906;2023-03-01T15:47:51;5.50;44.30
77207;DHT22;66190;50.708;7.906;2023-03-01T15:50:25;5.50;45.30
77207;DHT22;66190;50.708;7.906;2023-03-01T15:52:52;5.40;45.70
77207;DHT22;66190;50.708;7.906;2023-03-01T15:55:24;5.30;46.20
77207;DHT22;66190;50.708;7.906;2023-03-01T15:58:09;5.20;46.20
77207;DHT22;66190;50.708;7.906;2023-03-01T16:00:35;5.10;46.10
77207;DHT22;66190;50.708;7.906;2023-03-01T16:03:01;5.10;46.20
77207;DHT22;66190;50.708;7.906;2023-03-01T16:05:29;4.90;46.20
77207;DHT22;66190;50.708;7.906;2023-03-01T16:08:00;5.00;46.00
77207;DHT22;66190;50.708;7.906;2023-03-01T16:10:26;4.90;46.20
77207;DHT22;66190;50.708;7.906;2023-03-01T16:12:53;4.80;44.80
77207;DHT22;66190;50.708;7.906;2023-03-01T16:15:24;4.70;44.90
77207;DHT22;66190;50.708;7.906;2023-03-01T16:17:50;4.70;45.30
77207;DHT22;66190;50.708;7.906;2023-03-01T16:20:17;4.70;45.50
77207;DHT22;66190;50.708;7.906;2023-03-01T16:22:45;4.60;45.40
77207;DHT22;66190;50.708;7.906;2023-03-01T16:25:15;4.50;45.80
77207;DHT22;66190;50.708;7.906;2023-03-01T16:27:45;4.50;46.00
77207;DHT22;66190;50.708;7.906;2023-03-01T16:30:12;4.40;45.90
77207;DHT22;66190;50.708;7.906;2023-03-01T16:32:40;4.40;45.80
77207;DHT22;66190;50.708;7.906;2023-03-01T16:35:07;4.30;45.90
77207;DHT22;66190;50.708;7.906;2023-03-01T16:37:33;4.20;45.50
77207;DHT22;66190;50.708;7.906;2023-03-01T16:39:59;4.20;45.90
77207;DHT22;66190;50.708;7.906;2023-03-01T16:42:25;4.10;45.80
77207;DHT22;66190;50.708;7.906;2023-03-01T16:44:57;4.00;46.30
77207;DHT22;66190;50.708;7.906;2023-03-01T16:47:22;3.90;46.70
77207;DHT22;66190;50.708;7.906;2023-03-01T16:49:52;3.90;47.00
77207;DHT22;66190;50.708;7.906;2023-03-01T16:52:18;3.80;47.50
77207;DHT22;66190;50.708;7.906;2023-03-01T16:54:45;3.70;47.30
77207;DHT22;66190;50.708;7.906;2023-03-01T16:57:11;3.60;48.10
77207;DHT22;66190;50.708;7.906;2023-03-01T16:59:37;3.60;48.00
77207;DHT22;66190;50.708;7.906;2023-03-01T17:02:08;3.60;48.40
77207;DHT22;66190;50.708;7.906;2023-03-01T17:04:37;3.50;49.10
77207;DHT22;66190;50.708;7.906;2023-03-01T17:07:04;3.40;49.70
77207;DHT22;66190;50.708;7.906;2023-03-01T17:09:33;3.30;48.60
77207;DHT22;66190;50.708;7.906;2023-03-01T17:11:59;3.30;49.20
77207;DHT22;66190;50.708;7.906;2023-03-01T17:14:24;3.20;49.40
77207;DHT22;66190;50.708;7.906;2023-03-01T17:16:52;3.10;50.40
77207;DHT22;66190;50.708;7.906;2023-03-01T17:19:23;3.00;50.60
77207;DHT22;66190;50.708;7.906;2023-03-01T17:21:48;3.00;50.90
77207;DHT22;66190;50.708;7.906;2023-03-01T17:24:17;3.00;50.80
77207;DHT22;66190;50.708;7.906;2023-03-01T17:26:43;2.90;52.20
77207;DHT22;66190;50.708;7.906;2023-03-01T17:29:08;2.80;53.00
77207;DHT22;66190;50.708;7.906;2023-03-01T17:31:34;2.80;53.90
77207;DHT22;66190;50.708;7.906;2023-03-01T17:34:00;2.80;53.90
77207;DHT22;66190;50.708;7.906;2023-03-01T17:36:25;2.80;54.10
77207;DHT22;66190;50.708;7.906;2023-03-01T17:38:51;2.70;55.90
77207;DHT22;66190;50.708;7.906;2023-03-01T17:41:17;2.70;54.90
77207;DHT22;66190;50.708;7.906;2023-03-01T17:43:46;2.60;56.00
77207;DHT22;66190;50.708;7.906;2023-03-01T17:46:12;2.60;57.00
77207;DHT22;66190;50.708;7.906;2023-03-01T17:48:38;2.50;60.30
77207;DHT22;66190;50.708;7.906;2023-03-01T17:51:09;2.50;61.70
77207;DHT22;66190;50.708;7.906;2023-03-01T17:53:36;2.40;62.20
77207;DHT22;66190;50.708;7.906;2023-03-01T17:56:03;2.30;63.30